createdAt,value
2022-12-11T00:00:58.591Z,75.92
2022-12-11T00:04:51.631Z,75.88
2022-12-11T00:08:42.506Z,75.91
2022-12-11T00:12:32.899Z,75.60
2022-12-11T00:16:26.898Z,75.71
2022-12-11T00:20:18.117Z,75.32
2022-12-11T00:24:08.316Z,75.27
2022-12-11T00:27:58.816Z,74.68
2022-12-11T00:31:49.071Z,75.03
2022-12-11T00:35:45.149Z,74.66
2022-12-11T00:39:35.201Z,74.97
2022-12-11T00:43:25.952Z,74.61
2022-12-11T00:47:16.050Z,74.10
2022-12-11T00:51:06.960Z,74.22
2022-12-11T00:54:57.465Z,73.86
2022-12-11T00:58:49.405Z,74.12
2022-12-11T01:02:39.837Z,74.39
2022-12-11T01:06:30.517Z,74.34
2022-12-11T01:10:24.159Z,74.91
2022-12-11T01:14:14.695Z,74.07
2022-12-11T01:18:05.405Z,74.49
2022-12-11T01:21:55.810Z,74.63
2022-12-11T01:25:46.401Z,74.99
2022-12-11T01:29:36.919Z,74.80
2022-12-11T01:33:28.343Z,74.91
2022-12-11T01:37:18.644Z,74.31
2022-12-11T01:41:09.864Z,74.85
2022-12-11T01:45:24.709Z,75.00
2022-12-11T01:49:21.081Z,74.54
2022-12-11T01:53:17.012Z,74.56
2022-12-11T01:57:10.180Z,74.45
2022-12-11T02:01:02.496Z,74.10
2022-12-11T02:04:52.623Z,74.14
2022-12-11T02:08:43.080Z,73.97
2022-12-11T02:12:51.888Z,73.66
2022-12-11T02:17:32.768Z,73.39
2022-12-11T02:21:28.776Z,73.57
2022-12-11T02:25:40.582Z,73.53
2022-12-11T02:29:39.179Z,73.60
2022-12-11T02:33:54.079Z,73.01
2022-12-11T02:37:48.553Z,72.79
2022-12-11T02:41:44.069Z,72.77
2022-12-11T02:45:36.346Z,72.14
2022-12-11T02:49:28.357Z,72.93
2022-12-11T02:53:22.638Z,72.37
2022-12-11T02:57:36.090Z,72.44
2022-12-11T03:01:27.503Z,72.83
2022-12-11T03:05:18.021Z,72.62
2022-12-11T03:09:08.423Z,72.41
2022-12-11T03:13:00.471Z,72.00
2022-12-11T03:17:38.789Z,71.69
2022-12-11T03:21:47.418Z,72.17
2022-12-11T03:25:53.487Z,71.78
2022-12-11T03:29:54.114Z,71.95
2022-12-11T03:33:48.164Z,71.68
2022-12-11T03:37:41.594Z,72.48
2022-12-11T03:41:34.368Z,72.31
2022-12-11T03:45:25.771Z,72.25
2022-12-11T03:49:19.962Z,71.70
2022-12-11T03:53:10.774Z,72.20
2022-12-11T03:57:04.350Z,71.85
2022-12-11T04:00:54.751Z,71.60
2022-12-11T04:04:45.360Z,71.79
2022-12-11T04:08:35.556Z,72.03
2022-12-11T04:12:25.855Z,71.96
2022-12-11T04:16:15.871Z,72.39
2022-12-11T04:20:25.808Z,71.94
2022-12-11T04:24:16.192Z,71.80
2022-12-11T04:28:06.342Z,71.52
2022-12-11T04:32:14.537Z,71.15
2022-12-11T04:36:08.159Z,70.88
2022-12-11T04:39:59.019Z,71.43
2022-12-11T04:43:49.005Z,71.48
2022-12-11T04:47:45.348Z,71.76
2022-12-11T04:51:35.543Z,71.21
2022-12-11T04:55:25.945Z,71.38
2022-12-11T04:59:16.449Z,71.42
2022-12-11T05:03:07.033Z,71.47
2022-12-11T05:06:57.662Z,71.87
2022-12-11T05:10:59.641Z,71.57
2022-12-11T05:14:54.748Z,71.82
2022-12-11T05:18:45.037Z,71.56
2022-12-11T05:22:35.453Z,71.07
2022-12-11T05:26:25.545Z,70.95
2022-12-11T05:30:15.741Z,70.59
2022-12-11T05:34:06.144Z,70.99
2022-12-11T05:37:56.512Z,70.72
2022-12-11T05:41:47.049Z,70.90
2022-12-11T05:45:37.250Z,71.24
2022-12-11T05:49:31.054Z,70.74
2022-12-11T05:53:21.739Z,70.78
2022-12-11T05:57:11.935Z,71.18
2022-12-11T06:01:03.257Z,70.93
2022-12-11T06:04:53.761Z,70.95
2022-12-11T06:08:44.265Z,70.97
2022-12-11T06:12:34.361Z,70.99
2022-12-11T06:16:25.540Z,71.07
2022-12-11T06:20:15.983Z,70.97
2022-12-11T06:24:07.104Z,71.28
2022-12-11T06:27:59.152Z,71.36
2022-12-11T06:31:49.300Z,71.16
2022-12-11T06:35:42.466Z,71.21
2022-12-11T06:39:34.684Z,71.52
2022-12-11T06:43:26.102Z,71.18
2022-12-11T06:47:16.478Z,71.34
2022-12-11T06:51:12.628Z,71.76
2022-12-11T06:55:03.336Z,71.19
2022-12-11T06:58:54.067Z,70.62
2022-12-11T07:02:44.126Z,70.45
2022-12-11T07:06:34.424Z,70.72
2022-12-11T07:10:24.934Z,70.77
2022-12-11T07:14:15.393Z,71.16
2022-12-11T07:18:05.937Z,71.10
2022-12-11T07:21:56.441Z,71.14
2022-12-11T07:25:46.744Z,71.80
2022-12-11T07:29:37.553Z,72.33
2022-12-11T07:33:27.958Z,72.53
2022-12-11T07:37:18.563Z,72.44
2022-12-11T07:41:12.147Z,72.67
2022-12-11T07:45:02.748Z,72.78
2022-12-11T07:48:53.407Z,72.48
2022-12-11T07:52:43.656Z,72.48
2022-12-11T07:56:35.485Z,72.10
2022-12-11T08:00:25.823Z,71.47
2022-12-11T08:04:16.289Z,70.91
2022-12-11T08:08:06.433Z,71.06
2022-12-11T08:11:56.887Z,71.71
2022-12-11T08:15:47.395Z,70.68
2022-12-11T08:19:37.795Z,70.47
2022-12-11T08:23:27.890Z,70.27
2022-12-11T08:27:18.499Z,70.16
2022-12-11T08:31:11.804Z,70.62
2022-12-11T08:35:02.282Z,70.11
2022-12-11T08:38:54.981Z,70.09
2022-12-11T08:42:45.428Z,70.09
2022-12-11T08:46:36.170Z,70.08
2022-12-11T08:50:26.847Z,69.99
2022-12-11T08:54:17.248Z,70.02
2022-12-11T08:58:07.448Z,70.49
2022-12-11T09:01:57.846Z,70.66
2022-12-11T09:05:48.697Z,70.89
2022-12-11T09:09:39.487Z,70.69
2022-12-11T09:13:34.627Z,70.66
2022-12-11T09:17:27.670Z,70.61
2022-12-11T09:21:21.230Z,70.26
2022-12-11T09:25:12.097Z,70.94
2022-12-11T09:29:05.142Z,71.05
2022-12-11T09:32:56.734Z,70.35
2022-12-11T09:36:48.799Z,70.79
2022-12-11T09:40:51.076Z,70.49
2022-12-11T09:44:48.824Z,70.01
2022-12-11T09:48:42.228Z,69.88
2022-12-11T09:52:42.429Z,70.12
2022-12-11T09:56:45.938Z,69.56
2022-12-11T10:00:49.314Z,70.00
2022-12-11T10:05:04.531Z,70.42
2022-12-11T10:09:01.279Z,70.51
2022-12-11T10:13:31.104Z,70.55
2022-12-11T10:17:28.682Z,70.47
2022-12-11T10:21:20.918Z,70.36
2022-12-11T10:25:25.742Z,70.66
2022-12-11T10:29:16.571Z,70.47
2022-12-11T10:33:34.929Z,70.18
2022-12-11T10:37:25.535Z,70.59
2022-12-11T10:41:22.203Z,70.44
2022-12-11T10:45:16.379Z,70.40
2022-12-11T10:49:07.390Z,70.61
2022-12-11T10:52:58.510Z,70.92
2022-12-11T10:56:49.833Z,70.76
2022-12-11T11:00:42.041Z,70.98
2022-12-11T11:04:38.173Z,70.93
2022-12-11T11:08:37.627Z,70.66
2022-12-11T11:12:28.645Z,70.48
2022-12-11T11:16:22.077Z,70.68
2022-12-11T11:20:19.507Z,70.70
2022-12-11T11:24:28.934Z,70.69
2022-12-11T11:29:05.562Z,70.54
2022-12-11T11:32:15.880Z,70.28
2022-12-11T11:36:08.244Z,69.89
2022-12-11T11:40:08.380Z,70.06
2022-12-11T11:44:03.359Z,69.91
2022-12-11T11:48:20.392Z,70.00
2022-12-11T11:52:30.966Z,70.18
2022-12-11T11:56:27.020Z,70.46
2022-12-11T12:00:33.854Z,70.38
2022-12-11T12:04:38.465Z,69.92
2022-12-11T12:08:54.733Z,69.01
2022-12-11T12:12:56.705Z,69.25
2022-12-11T12:17:12.335Z,69.85
2022-12-11T12:21:30.963Z,69.15
2022-12-11T12:25:45.633Z,69.36
2022-12-11T12:29:47.912Z,68.81
2022-12-11T12:34:02.419Z,69.28
2022-12-11T12:38:31.385Z,68.49
2022-12-11T12:42:29.467Z,67.44
2022-12-11T12:46:29.085Z,67.34
2022-12-11T12:50:23.683Z,67.20
2022-12-11T12:54:17.822Z,67.54
2022-12-11T12:58:45.143Z,67.04
2022-12-11T13:02:39.695Z,67.06
2022-12-11T13:06:36.597Z,67.05
2022-12-11T13:10:45.634Z,67.06
2022-12-11T13:14:06.647Z,67.92
2022-12-11T13:17:57.152Z,67.74
2022-12-11T13:22:15.509Z,68.26
2022-12-11T13:26:06.245Z,68.53
2022-12-11T13:30:17.253Z,68.52
2022-12-11T13:34:16.619Z,68.70
2022-12-11T13:38:16.854Z,69.12
2022-12-11T13:42:25.888Z,69.33
2022-12-11T13:46:27.164Z,69.65
2022-12-11T13:50:28.604Z,69.56
2022-12-11T13:54:20.542Z,69.93
2022-12-11T13:58:19.557Z,70.06
2022-12-11T14:02:33.396Z,70.76
2022-12-11T14:06:33.447Z,70.23
2022-12-11T14:10:28.178Z,71.12
2022-12-11T14:14:36.103Z,71.55
2022-12-11T14:18:30.956Z,70.71
2022-12-11T14:22:31.034Z,70.62
2022-12-11T14:26:30.334Z,71.09
2022-12-11T14:30:47.902Z,70.70
2022-12-11T14:34:48.184Z,70.91
2022-12-11T14:38:49.816Z,71.46
2022-12-11T14:42:57.055Z,71.23
2022-12-11T14:47:04.971Z,71.17
2022-12-11T14:50:58.965Z,71.54
2022-12-11T14:55:08.177Z,71.58
2022-12-11T14:59:19.889Z,72.00
2022-12-11T15:03:37.682Z,72.25
2022-12-11T15:06:58.092Z,71.87
2022-12-11T15:11:12.864Z,72.26
2022-12-11T15:15:07.734Z,72.52
2022-12-11T15:18:59.257Z,72.59
2022-12-11T15:22:51.990Z,73.20
2022-12-11T15:26:51.006Z,73.23
2022-12-11T15:30:43.696Z,73.23
2022-12-11T15:35:25.976Z,73.56
2022-12-11T15:39:17.786Z,73.23
2022-12-11T15:43:09.042Z,73.70
2022-12-11T15:46:59.473Z,73.55
2022-12-11T15:50:50.025Z,73.85
2022-12-11T15:54:40.723Z,73.69
2022-12-11T15:58:31.637Z,73.55
2022-12-11T16:02:24.476Z,74.18
2022-12-11T16:06:15.308Z,74.93
2022-12-11T16:10:07.689Z,73.88
2022-12-11T16:13:59.187Z,73.91
2022-12-11T16:17:49.387Z,73.73
2022-12-11T16:21:41.217Z,73.60
2022-12-11T16:25:32.968Z,73.81
2022-12-11T16:29:24.480Z,74.16
2022-12-11T16:33:14.911Z,74.02
2022-12-11T16:37:11.742Z,74.75
2022-12-11T16:41:02.339Z,74.53
2022-12-11T16:44:53.154Z,74.97
2022-12-11T16:48:46.011Z,74.89
2022-12-11T16:52:36.868Z,75.50
2022-12-11T16:56:27.433Z,75.29
2022-12-11T17:00:18.245Z,75.63
2022-12-11T17:04:09.973Z,75.35
2022-12-11T17:08:00.438Z,75.75
2022-12-11T17:11:53.664Z,75.65
2022-12-11T17:15:44.720Z,75.55
2022-12-11T17:19:36.265Z,76.05
2022-12-11T17:23:26.870Z,75.93
2022-12-11T17:27:18.015Z,76.19
2022-12-11T17:31:15.955Z,76.04
2022-12-11T17:35:06.806Z,76.16
2022-12-11T17:38:57.926Z,76.29
2022-12-11T17:42:49.044Z,76.08
2022-12-11T17:46:39.184Z,76.41
2022-12-11T17:50:29.651Z,76.29
2022-12-11T17:54:20.456Z,76.70
2022-12-11T17:58:21.848Z,76.64
2022-12-11T18:02:11.962Z,76.46
2022-12-11T18:06:06.766Z,76.87
2022-12-11T18:09:59.411Z,76.51
2022-12-11T18:13:53.554Z,76.81
2022-12-11T18:18:23.522Z,76.35
2022-12-11T18:21:27.711Z,76.49
2022-12-11T18:25:19.035Z,77.03
2022-12-11T18:29:09.739Z,76.73
2022-12-11T18:33:00.039Z,76.91
2022-12-11T18:36:50.338Z,76.71
2022-12-11T18:40:40.331Z,77.06
2022-12-11T18:44:32.064Z,76.50
2022-12-11T18:48:24.210Z,76.86
2022-12-11T18:52:14.749Z,76.73
2022-12-11T18:56:07.953Z,76.90
2022-12-11T19:00:02.485Z,77.06
2022-12-11T19:04:02.719Z,77.47
2022-12-11T19:07:55.851Z,77.78
2022-12-11T19:11:47.634Z,78.13
2022-12-11T19:15:40.914Z,77.60
2022-12-11T19:19:31.613Z,77.89
2022-12-11T19:23:23.172Z,77.82
2022-12-11T19:27:14.008Z,77.93
2022-12-11T19:31:10.046Z,78.43
2022-12-11T19:35:00.773Z,78.40
2022-12-11T19:38:54.369Z,78.11
2022-12-11T19:42:47.414Z,78.56
2022-12-11T19:46:38.561Z,78.59
2022-12-11T19:50:28.932Z,78.81
2022-12-11T19:54:20.163Z,78.71
2022-12-11T19:58:14.550Z,78.51
2022-12-11T20:02:05.310Z,78.70
2022-12-11T20:06:04.137Z,78.80
2022-12-11T20:09:54.563Z,78.37
2022-12-11T20:13:46.095Z,78.53
2022-12-11T20:17:38.113Z,78.75
2022-12-11T20:21:28.841Z,78.71
2022-12-11T20:25:19.417Z,78.78
2022-12-11T20:29:09.642Z,78.79
2022-12-11T20:33:00.456Z,78.45
2022-12-11T20:36:52.190Z,78.94
2022-12-11T20:40:46.380Z,78.58
2022-12-11T20:44:37.504Z,78.50
2022-12-11T20:48:28.513Z,78.78
2022-12-11T20:52:20.042Z,78.89
2022-12-11T20:56:13.960Z,78.90
2022-12-11T21:00:23.373Z,78.79
2022-12-11T21:04:01.285Z,78.91
2022-12-11T21:07:19.736Z,78.84
2022-12-11T21:11:10.679Z,78.82
2022-12-11T21:15:01.051Z,79.12
2022-12-11T21:18:52.169Z,79.15
2022-12-11T21:22:43.904Z,79.14
2022-12-11T21:26:34.510Z,79.35
2022-12-11T21:30:43.752Z,78.81
2022-12-11T21:34:03.234Z,78.63
2022-12-11T21:38:20.481Z,78.84
2022-12-11T21:41:43.228Z,78.94
2022-12-11T21:45:59.378Z,79.01
2022-12-11T21:49:22.072Z,79.28
2022-12-11T21:53:19.162Z,79.07
2022-12-11T21:57:39.572Z,79.38
2022-12-11T22:00:59.075Z,79.56
2022-12-11T22:05:10.582Z,79.58
2022-12-11T22:09:23.541Z,79.48
2022-12-11T22:13:14.252Z,79.54
2022-12-11T22:17:08.856Z,79.62
2022-12-11T22:20:59.878Z,79.56
2022-12-11T22:24:50.884Z,79.54
2022-12-11T22:28:40.977Z,79.73
2022-12-11T22:32:31.278Z,79.88
2022-12-11T22:36:23.521Z,80.11
2022-12-11T22:40:13.616Z,79.94
2022-12-11T22:44:04.020Z,79.97
2022-12-11T22:47:54.319Z,79.87
2022-12-11T22:52:04.073Z,79.85
2022-12-11T22:55:22.124Z,79.92
2022-12-11T22:59:12.724Z,80.04
2022-12-11T23:03:04.046Z,80.30
2022-12-11T23:06:54.654Z,79.95
2022-12-11T23:10:44.952Z,80.22
2022-12-11T23:14:35.354Z,80.62
2022-12-11T23:18:25.392Z,80.17
2022-12-11T23:22:16.159Z,80.33
2022-12-11T23:26:09.430Z,80.48
2022-12-11T23:29:59.524Z,80.47
2022-12-11T23:33:52.113Z,80.37
2022-12-11T23:37:42.342Z,80.54
2022-12-11T23:41:33.001Z,80.70
2022-12-11T23:45:23.280Z,80.62
2022-12-11T23:49:13.580Z,80.49
2022-12-11T23:53:05.826Z,80.51
2022-12-11T23:56:56.126Z,81.09
